Time;durP1;ratioP1;P1;durP2;ratioP2;P2;SDS_P1;SDS_P2;PMS_P1;PMS_P2;Temp;Humidity;BMP_temperature;BMP_pressure;BME280_temperature;BME280_humidity;BME280_pressure;Samples;Min_cycle;Max_cycle;Signal;HPM_P1;HPM_P2
2023/01/03 00:01:30;;;;;;;4.55;2.80;;;9.60;99.90;;;;;;5051320;28;20027;-54
2023/01/03 00:04:17;;;;;;;3.78;2.85;;;9.70;99.90;;;;;;5052194;28;20103;-50
2023/01/03 00:07:03;;;;;;;5.60;2.67;;;9.70;99.90;;;;;;5036725;28;20123;-51
2023/01/03 00:09:49;;;;;;;3.60;2.70;;;9.60;99.90;;;;;;5051779;28;20110;-51
2023/01/03 00:12:36;;;;;;;3.22;2.75;;;9.50;99.90;;;;;;5052019;28;20029;-53
2023/01/03 00:15:22;;;;;;;3.92;2.80;;;9.50;99.90;;;;;;5051702;28;20489;-50
2023/01/03 00:18:08;;;;;;;4.38;2.83;;;9.30;99.90;;;;;;5051755;28;20060;-53
2023/01/03 00:20:54;;;;;;;4.13;2.78;;;9.40;99.90;;;;;;5050540;28;20029;-48
2023/01/03 00:23:40;;;;;;;7.28;3.05;;;9.30;99.90;;;;;;5036668;28;20507;-54
2023/01/03 00:26:26;;;;;;;3.00;2.70;;;9.40;99.90;;;;;;5050762;28;20470;-48
2023/01/03 00:29:12;;;;;;;3.75;2.88;;;9.40;99.90;;;;;;5051272;28;20084;-50
2023/01/03 00:31:58;;;;;;;3.60;3.15;;;9.30;99.90;;;;;;5051552;28;20044;-48
2023/01/03 00:34:45;;;;;;;3.45;3.03;;;9.30;99.90;;;;;;5051787;28;20075;-50
2023/01/03 00:37:31;;;;;;;4.10;3.03;;;9.30;99.90;;;;;;5051067;28;20064;-49
2023/01/03 00:40:17;;;;;;;7.20;3.60;;;9.30;99.90;;;;;;5051130;28;20029;-49
2023/01/03 00:46:09;;;;;;;3.85;3.35;;;9.10;99.90;;;;;;5051354;28;20108;-52
2023/01/03 00:48:55;;;;;;;4.18;3.55;;;8.90;99.90;;;;;;5051362;28;20080;-55
2023/01/03 00:51:42;;;;;;;5.75;3.58;;;8.80;99.90;;;;;;5052380;28;20063;-48
2023/01/03 00:54:28;;;;;;;4.25;3.28;;;8.80;99.90;;;;;;5051662;28;20028;-52
2023/01/03 00:57:14;;;;;;;4.70;3.30;;;8.80;99.90;;;;;;5050891;28;20025;-49
2023/01/03 01:00:00;;;;;;;3.95;3.45;;;8.70;99.90;;;;;;5051086;28;20072;-48
2023/01/03 01:02:46;;;;;;;6.15;3.00;;;8.90;99.90;;;;;;5054034;28;20021;-48
2023/01/03 01:05:32;;;;;;;3.72;2.92;;;8.90;99.90;;;;;;5050817;28;20031;-51
2023/01/03 01:08:18;;;;;;;4.07;3.10;;;8.90;99.90;;;;;;5053110;28;20026;-52
2023/01/03 01:11:04;;;;;;;6.03;3.33;;;9.00;99.90;;;;;;5054435;28;20025;-51
2023/01/03 01:13:50;;;;;;;4.88;3.10;;;9.10;99.90;;;;;;5055036;28;20040;-50
2023/01/03 01:16:36;;;;;;;3.67;3.00;;;9.20;99.90;;;;;;5055282;28;20036;-55
2023/01/03 01:19:31;;;;;;;4.00;3.20;;;9.30;99.90;;;;;;5055890;28;20025;-49
2023/01/03 01:22:17;;;;;;;6.30;3.88;;;9.30;99.90;;;;;;5040053;28;20088;-50
2023/01/03 01:25:03;;;;;;;3.58;2.90;;;9.20;99.90;;;;;;5054311;28;20029;-51
2023/01/03 01:27:49;;;;;;;3.25;2.90;;;9.30;99.90;;;;;;5053422;28;20046;-50
2023/01/03 01:30:36;;;;;;;4.88;3.10;;;9.30;99.90;;;;;;5053863;28;20048;-48
2023/01/03 01:33:22;;;;;;;6.45;3.00;;;9.30;99.90;;;;;;5054811;28;20029;-51
2023/01/03 01:36:16;;;;;;;4.32;3.25;;;9.40;99.90;;;;;;5054002;28;20029;-49
2023/01/03 01:39:05;;;;;;;4.72;3.25;;;9.40;99.90;;;;;;5053875;28;20083;-52
2023/01/03 01:45:11;;;;;;;5.85;3.75;;;9.20;99.90;;;;;;5054535;28;20103;-52
2023/01/03 01:48:07;;;;;;;6.15;3.33;;;9.10;99.90;;;;;;5054580;28;20025;-48
2023/01/03 01:50:55;;;;;;;5.32;3.17;;;9.00;99.90;;;;;;5055237;28;20083;-52
2023/01/03 01:53:42;;;;;;;6.72;3.85;;;8.90;99.90;;;;;;5055294;28;20040;-50
2023/01/03 01:56:33;;;;;;;5.18;3.22;;;8.90;99.90;;;;;;5040452;28;20558;-48
2023/01/03 01:59:19;;;;;;;6.10;3.35;;;9.00;99.90;;;;;;5054834;28;20544;-49
2023/01/03 02:02:05;;;;;;;5.53;3.33;;;9.00;99.90;;;;;;5054224;28;20428;-50
2023/01/03 02:04:54;;;;;;;4.40;3.10;;;9.00;99.90;;;;;;5039432;28;20021;-50
2023/01/03 02:07:41;;;;;;;4.38;3.05;;;9.20;99.90;;;;;;5053851;28;20021;-48
2023/01/03 02:10:55;;;;;;;4.28;3.22;;;9.00;99.90;;;;;;5054149;28;20024;-50
2023/01/03 02:13:53;;;;;;;7.72;4.10;;;9.00;99.90;;;;;;5054151;28;20029;-50
2023/01/03 02:16:47;;;;;;;5.15;3.38;;;8.90;99.90;;;;;;5053269;28;20028;-49
2023/01/03 02:19:46;;;;;;;4.97;3.97;;;9.00;99.90;;;;;;5052120;28;20108;-49
2023/01/03 02:22:40;;;;;;;4.50;4.10;;;9.00;99.90;;;;;;5053270;28;20446;-51
2023/01/03 02:25:38;;;;;;;4.88;3.90;;;9.00;99.90;;;;;;5054586;28;20024;-47
2023/01/03 02:28:30;;;;;;;5.80;4.22;;;8.80;99.90;;;;;;5053380;28;20033;-48
2023/01/03 02:31:24;;;;;;;7.53;3.83;;;8.80;99.90;;;;;;5054128;28;20032;-48
2023/01/03 02:34:31;;;;;;;5.40;3.30;;;8.80;99.90;;;;;;5055750;28;20031;-47
2023/01/03 02:38:08;;;;;;;4.53;3.20;;;8.70;99.90;;;;;;5053168;28;20029;-48
2023/01/03 02:41:05;;;;;;;6.55;2.88;;;8.60;99.90;;;;;;5030942;28;20033;-50
2023/01/03 02:43:57;;;;;;;6.75;3.15;;;8.80;99.90;;;;;;5053357;28;20047;-50
2023/01/03 02:46:53;;;;;;;3.63;2.50;;;8.80;99.90;;;;;;5053103;28;20036;-52
2023/01/03 02:49:45;;;;;;;4.78;2.17;;;8.80;99.90;;;;;;5053149;28;20319;-50
2023/01/03 02:52:31;;;;;;;6.22;2.70;;;8.90;99.90;;;;;;5052920;28;20118;-52
2023/01/03 02:55:22;;;;;;;3.33;2.22;;;8.90;99.90;;;;;;5053753;28;20026;-50
2023/01/03 02:58:15;;;;;;;3.67;2.20;;;8.90;99.90;;;;;;5052351;28;20079;-48
2023/01/03 03:01:02;;;;;;;5.18;2.70;;;9.10;99.90;;;;;;5052547;28;20262;-51
2023/01/03 03:03:48;;;;;;;3.63;2.70;;;8.90;99.90;;;;;;5052873;28;20507;-49
2023/01/03 03:06:44;;;;;;;2.85;2.25;;;8.80;99.90;;;;;;5052754;28;20124;-50
2023/01/03 03:09:30;;;;;;;3.15;2.50;;;8.80;99.90;;;;;;5053032;28;20028;-48
2023/01/03 03:15:27;;;;;;;3.65;2.05;;;8.70;99.90;;;;;;5053120;28;20040;-51
2023/01/03 03:18:26;;;;;;;2.63;2.33;;;8.80;99.90;;;;;;5052770;28;20029;-48
2023/01/03 03:30:43;;;;;;;3.70;2.40;;;8.70;99.90;;;;;;5052232;28;20029;-49
2023/01/03 03:33:33;;;;;;;5.68;3.13;;;8.70;99.90;;;;;;5051956;28;20062;-49
2023/01/03 03:36:25;;;;;;;3.92;2.80;;;8.60;99.90;;;;;;5052234;28;20023;-53
2023/01/03 03:45:53;;;;;;;4.78;3.15;;;8.40;99.90;;;;;;5052117;28;20497;-51
2023/01/03 03:52:01;;;;;;;4.55;2.88;;;8.50;99.90;;;;;;5052131;28;20104;-48
2023/01/03 03:54:57;;;;;;;4.68;3.20;;;8.50;99.90;;;;;;5052267;28;20036;-48
2023/01/03 03:57:53;;;;;;;6.40;4.20;;;8.60;99.90;;;;;;5051561;28;20094;-50
2023/01/03 04:00:40;;;;;;;4.93;3.22;;;8.70;99.90;;;;;;5052401;28;20025;-50
2023/01/03 04:03:29;;;;;;;5.45;2.70;;;8.80;99.90;;;;;;5052218;28;20120;-50
2023/01/03 04:06:21;;;;;;;3.00;2.70;;;8.80;99.90;;;;;;5052053;28;20070;-47
2023/01/03 04:09:07;;;;;;;6.47;3.60;;;8.70;99.90;;;;;;5052041;28;20028;-49
2023/01/03 04:11:53;;;;;;;4.57;2.90;;;8.70;99.90;;;;;;5051842;28;20029;-50
2023/01/03 04:14:39;;;;;;;3.47;3.10;;;8.70;99.90;;;;;;5052400;28;20390;-49
2023/01/03 04:17:25;;;;;;;5.55;3.10;;;8.70;99.90;;;;;;5051523;28;20547;-49
2023/01/03 04:20:12;;;;;;;3.72;2.80;;;8.70;99.90;;;;;;5052192;28;20028;-49
2023/01/03 04:22:58;;;;;;;4.63;3.17;;;8.80;99.90;;;;;;5051960;28;20079;-49
2023/01/03 04:25:44;;;;;;;5.60;3.20;;;8.90;99.90;;;;;;5052658;28;20492;-48
2023/01/03 04:28:30;;;;;;;4.80;3.60;;;9.00;99.90;;;;;;5051118;28;20409;-49
2023/01/03 04:31:16;;;;;;;5.38;3.70;;;9.10;99.90;;;;;;5050871;28;20506;-52
2023/01/03 04:34:02;;;;;;;4.80;3.55;;;9.00;99.90;;;;;;5051091;28;20104;-51
2023/01/03 04:36:48;;;;;;;4.00;3.60;;;9.00;99.90;;;;;;5050073;28;20021;-49
2023/01/03 04:39:34;;;;;;;5.43;3.45;;;9.00;99.90;;;;;;5037236;28;20345;-48
2023/01/03 04:45:24;;;;;;;10.25;4.95;;;8.90;99.90;;;;;;5055630;28;20032;-49
2023/01/03 04:48:10;;;;;;;5.13;3.95;;;8.80;99.90;;;;;;5055402;28;20029;-47
2023/01/03 04:50:58;;;;;;;5.78;4.50;;;8.60;99.90;;;;;;5055281;28;20032;-50
2023/01/03 04:53:44;;;;;;;4.78;3.97;;;8.60;99.90;;;;;;5055385;28;20025;-50
2023/01/03 04:56:33;;;;;;;5.78;4.30;;;8.50;99.90;;;;;;5054560;28;20108;-48
2023/01/03 04:59:18;;;;;;;6.53;4.25;;;8.70;99.90;;;;;;5055432;28;20052;-52
2023/01/03 05:02:04;;;;;;;8.70;4.72;;;8.70;99.90;;;;;;5054875;28;20033;-52
2023/01/03 05:04:50;;;;;;;6.18;4.53;;;8.70;99.90;;;;;;5055195;28;20025;-49
2023/01/03 05:07:36;;;;;;;6.47;4.80;;;8.70;99.90;;;;;;5054881;28;20025;-50
2023/01/03 05:10:22;;;;;;;6.97;4.45;;;8.70;99.90;;;;;;5055397;28;20563;-53
2023/01/03 05:13:08;;;;;;;6.57;4.80;;;8.70;99.90;;;;;;5055536;28;20556;-48
2023/01/03 05:15:54;;;;;;;7.70;5.18;;;8.70;99.90;;;;;;5054750;28;20032;-54
2023/01/03 05:18:41;;;;;;;5.78;4.78;;;8.70;99.90;;;;;;5054628;28;20408;-49
2023/01/03 05:25:48;;;;;;;8.65;5.20;;;8.50;99.90;;;;;;5055400;28;20024;-48
2023/01/03 05:27:40;;;;;;;8.38;5.55;;;8.50;99.90;;;;;;5055028;28;20163;-49
2023/01/03 05:30:27;;;;;;;7.57;5.55;;;8.50;99.90;;;;;;5054419;28;20054;-53
2023/01/03 05:33:13;;;;;;;9.70;6.32;;;8.40;99.90;;;;;;5055001;28;20403;-55
2023/01/03 05:35:59;;;;;;;8.18;5.72;;;8.20;99.90;;;;;;5054782;28;20025;-54
2023/01/03 05:38:45;;;;;;;7.60;6.10;;;8.20;99.90;;;;;;5053987;28;20029;-57
2023/01/03 05:44:35;;;;;;;7.88;5.40;;;8.20;99.90;;;;;;5054425;28;20481;-58
2023/01/03 05:47:21;;;;;;;7.88;5.78;;;8.20;99.90;;;;;;5054217;28;20048;-55
2023/01/03 05:50:07;;;;;;;7.30;6.05;;;8.20;99.90;;;;;;5039520;28;20021;-54
2023/01/03 05:52:53;;;;;;;9.57;6.18;;;8.30;99.90;;;;;;5054909;28;20040;-55
2023/01/03 05:55:39;;;;;;;10.73;6.70;;;8.30;99.90;;;;;;5054052;28;20096;-52
2023/01/03 05:58:25;;;;;;;7.95;5.95;;;8.20;99.90;;;;;;5054076;28;20033;-53
2023/01/03 06:01:13;;;;;;;9.60;6.80;;;8.10;99.90;;;;;;5053617;28;20029;-54
2023/01/03 06:03:59;;;;;;;9.40;6.72;;;8.20;99.90;;;;;;5054289;28;20025;-50
2023/01/03 06:06:45;;;;;;;7.68;6.60;;;8.40;99.90;;;;;;5053251;28;20021;-53
2023/01/03 06:09:31;;;;;;;8.75;6.72;;;8.40;99.90;;;;;;5039042;28;20047;-48
2023/01/03 06:12:17;;;;;;;9.30;7.30;;;8.40;99.90;;;;;;5053992;28;20043;-52
2023/01/03 06:15:04;;;;;;;10.68;7.47;;;8.50;99.90;;;;;;5053211;28;20528;-54
2023/01/03 06:17:59;;;;;;;9.57;6.85;;;8.50;99.90;;;;;;5039193;28;20029;-53
2023/01/03 06:20:45;;;;;;;7.63;6.28;;;8.40;99.90;;;;;;5053202;28;20029;-57
2023/01/03 06:23:31;;;;;;;11.25;6.82;;;8.40;99.90;;;;;;5053425;28;20112;-54
2023/01/03 06:26:19;;;;;;;8.68;6.53;;;8.20;99.90;;;;;;5052712;28;20030;-56
2023/01/03 06:29:06;;;;;;;10.23;7.75;;;8.10;99.90;;;;;;5053513;28;20025;-55
2023/01/03 06:31:52;;;;;;;7.95;6.40;;;8.10;99.90;;;;;;5053825;28;20044;-58
2023/01/03 06:34:38;;;;;;;8.77;7.00;;;8.10;99.90;;;;;;5039090;28;20044;-52
2023/01/03 06:37:24;;;;;;;12.85;7.95;;;8.10;99.90;;;;;;5039495;28;20099;-50
2023/01/03 06:40:10;;;;;;;9.88;6.75;;;8.00;99.90;;;;;;5052927;28;20033;-59
2023/01/03 06:42:56;;;;;;;9.68;6.82;;;8.00;99.90;;;;;;5053289;28;20500;-53
2023/01/03 06:54:56;;;;;;;11.63;7.15;;;7.80;99.90;;;;;;5053043;28;20029;-59
2023/01/03 06:57:42;;;;;;;9.45;6.57;;;7.80;99.90;;;;;;5052854;28;20037;-54
2023/01/03 07:00:28;;;;;;;8.77;7.05;;;7.70;99.90;;;;;;5052844;28;20021;-55
2023/01/03 07:03:14;;;;;;;10.43;6.47;;;7.70;99.90;;;;;;5037948;28;20021;-56
2023/01/03 07:06:00;;;;;;;9.23;6.22;;;7.60;99.90;;;;;;5052340;28;20032;-54
2023/01/03 07:08:46;;;;;;;11.00;6.75;;;7.70;99.90;;;;;;5052052;28;20112;-55
2023/01/03 07:11:33;;;;;;;18.55;7.85;;;7.70;99.90;;;;;;5052059;28;20104;-58
2023/01/03 07:14:18;;;;;;;12.05;7.00;;;7.70;99.90;;;;;;5038461;28;20021;-54
2023/01/03 07:17:04;;;;;;;8.82;6.32;;;7.60;99.90;;;;;;5052412;28;20119;-51
2023/01/03 07:19:50;;;;;;;13.77;7.53;;;7.40;99.90;;;;;;5052141;28;20394;-51
2023/01/03 07:22:36;;;;;;;9.95;6.75;;;7.50;99.90;;;;;;5052372;28;20481;-52
2023/01/03 07:25:22;;;;;;;7.70;6.30;;;7.40;99.90;;;;;;5051957;28;20511;-53
2023/01/03 07:28:10;;;;;;;9.98;6.13;;;7.50;99.90;;;;;;5051660;28;20382;-57
2023/01/03 07:31:04;;;;;;;11.13;6.28;;;7.50;99.90;;;;;;5037720;28;20502;-54
2023/01/03 07:33:51;;;;;;;7.90;6.45;;;7.50;99.90;;;;;;5052319;28;20213;-58
2023/01/03 07:36:37;;;;;;;11.38;6.45;;;7.50;99.90;;;;;;5023842;28;20512;-53
2023/01/03 07:39:23;;;;;;;6.80;6.00;;;7.50;99.90;;;;;;5051618;28;20088;-58
2023/01/03 07:45:14;;;;;;;6.75;5.40;;;7.70;99.90;;;;;;5040426;28;20037;-51
2023/01/03 07:48:00;;;;;;;11.95;8.60;;;7.70;99.90;;;;;;5051797;28;20086;-54
2023/01/03 07:50:46;;;;;;;9.82;7.05;;;7.60;99.90;;;;;;5051607;28;20163;-50
2023/01/03 07:53:33;;;;;;;10.50;6.35;;;7.70;99.90;;;;;;5052331;28;20029;-51
2023/01/03 07:56:20;;;;;;;18.60;9.65;;;7.70;99.90;;;;;;5037504;28;20036;-50
2023/01/03 07:59:07;;;;;;;18.17;11.20;;;7.80;99.90;;;;;;5051911;28;20074;-46
2023/01/03 08:01:53;;;;;;;10.50;8.13;;;7.90;99.90;;;;;;5050216;28;20064;-45
2023/01/03 08:04:39;;;;;;;15.07;7.75;;;7.90;99.90;;;;;;5051914;28;20108;-47
2023/01/03 08:07:25;;;;;;;16.65;11.65;;;8.00;99.90;;;;;;5052205;28;20082;-47
2023/01/03 08:13:18;;;;;;;10.30;7.38;;;8.00;99.90;;;;;;5052829;28;20033;-44
2023/01/03 08:16:04;;;;;;;14.88;9.23;;;8.10;99.90;;;;;;5051376;28;20029;-48
2023/01/03 08:18:51;;;;;;;11.98;10.00;;;8.00;99.90;;;;;;5051720;28;20029;-46
2023/01/03 08:21:40;;;;;;;13.43;9.02;;;8.00;99.90;;;;;;5052248;28;20056;-53
2023/01/03 08:24:26;;;;;;;10.20;8.02;;;8.00;99.90;;;;;;5038345;28;20032;-46
2023/01/03 08:27:12;;;;;;;10.15;8.32;;;8.00;99.90;;;;;;5051464;28;20077;-47
2023/01/03 08:29:58;;;;;;;12.98;8.02;;;8.00;99.90;;;;;;5036347;28;20028;-45
2023/01/03 08:32:44;;;;;;;12.60;8.50;;;7.90;99.90;;;;;;5052237;28;20092;-47
2023/01/03 08:35:35;;;;;;;11.10;8.70;;;7.80;99.90;;;;;;5052085;28;20064;-46
2023/01/03 08:38:25;;;;;;;10.80;7.75;;;7.60;99.90;;;;;;5051991;28;20022;-45
2023/01/03 08:41:15;;;;;;;11.75;8.07;;;7.60;99.90;;;;;;5051911;28;20063;-48
2023/01/03 08:44:02;;;;;;;10.80;8.00;;;7.70;99.90;;;;;;5051680;28;20391;-49
2023/01/03 08:46:52;;;;;;;10.50;8.75;;;7.80;99.90;;;;;;5037773;28;20021;-48
2023/01/03 08:49:38;;;;;;;10.32;7.85;;;7.80;99.90;;;;;;5051821;28;20389;-46
2023/01/03 08:52:24;;;;;;;10.80;8.20;;;7.80;99.90;;;;;;5038460;28;20029;-48
2023/01/03 08:55:10;;;;;;;14.00;8.75;;;7.80;99.90;;;;;;5051772;28;20112;-50
2023/01/03 08:57:58;;;;;;;12.65;8.27;;;7.70;99.90;;;;;;5051642;28;20029;-51
2023/01/03 09:00:44;;;;;;;10.40;8.80;;;7.60;99.90;;;;;;5051565;28;20076;-48
2023/01/03 09:03:30;;;;;;;10.30;8.27;;;7.70;99.90;;;;;;5051718;28;20021;-53
2023/01/03 09:06:16;;;;;;;12.90;9.07;;;7.60;99.90;;;;;;5037670;28;20468;-51
2023/01/03 09:09:06;;;;;;;12.02;8.57;;;7.70;99.90;;;;;;5023269;28;20547;-52
2023/01/03 09:11:52;;;;;;;10.75;8.82;;;7.70;99.90;;;;;;5052205;28;20112;-50
2023/01/03 09:14:38;;;;;;;11.00;8.38;;;7.60;99.90;;;;;;5051432;28;20040;-53
2023/01/03 09:17:24;;;;;;;10.75;8.85;;;7.70;99.90;;;;;;5058553;28;20064;-51
2023/01/03 09:20:11;;;;;;;9.55;8.07;;;7.80;99.90;;;;;;5065023;28;20193;-50
2023/01/03 09:22:57;;;;;;;11.43;8.10;;;7.70;99.90;;;;;;5060299;28;20032;-46
2023/01/03 09:25:45;;;;;;;9.30;7.90;;;7.90;99.90;;;;;;5054723;28;20401;-51
2023/01/03 09:28:31;;;;;;;9.90;8.27;;;8.00;99.90;;;;;;5052438;28;20433;-48
2023/01/03 09:31:17;;;;;;;9.10;7.85;;;8.00;99.90;;;;;;5055521;28;20086;-49
2023/01/03 09:34:04;;;;;;;11.80;7.95;;;8.20;99.90;;;;;;5055498;28;20040;-48
2023/01/03 09:36:50;;;;;;;9.60;7.57;;;8.30;99.90;;;;;;5055836;28;20033;-48
2023/01/03 09:39:36;;;;;;;10.23;7.68;;;8.20;99.90;;;;;;5054913;28;20033;-50
2023/01/03 09:45:33;;;;;;;8.13;7.10;;;8.30;99.90;;;;;;5055221;28;20032;-47
2023/01/03 09:48:26;;;;;;;11.68;7.80;;;8.30;99.90;;;;;;5055327;28;20025;-45
2023/01/03 10:04:24;;;;;;;11.93;7.15;;;8.70;99.90;;;;;;5054972;28;20405;-46
2023/01/03 10:07:15;;;;;;;7.63;6.32;;;8.60;99.90;;;;;;5040679;28;20032;-55
2023/01/03 10:10:20;;;;;;;8.20;5.95;;;8.80;99.90;;;;;;5041013;28;20364;-50
2023/01/03 10:13:34;;;;;;;8.50;5.97;;;8.90;99.90;;;;;;5054339;28;20021;-51
2023/01/03 10:16:20;;;;;;;7.50;5.45;;;9.00;99.90;;;;;;5053607;28;20032;-46
2023/01/03 10:20:02;;;;;;;9.35;5.32;;;8.90;99.90;;;;;;5053862;28;20050;-49
2023/01/03 10:22:50;;;;;;;8.40;4.93;;;8.80;99.90;;;;;;4978849;28;20031;-48
2023/01/03 10:25:38;;;;;;;8.50;5.03;;;8.90;99.90;;;;;;5039771;28;20021;-56
2023/01/03 10:28:31;;;;;;;6.30;5.03;;;8.90;99.90;;;;;;5039355;28;20115;-53
2023/01/03 10:31:40;;;;;;;7.05;4.80;;;8.70;99.90;;;;;;5053805;28;20108;-53
2023/01/03 10:34:26;;;;;;;12.13;5.03;;;8.90;99.90;;;;;;5053588;28;20021;-49
2023/01/03 10:37:22;;;;;;;7.47;5.15;;;8.80;99.90;;;;;;5054357;28;20500;-56
2023/01/03 10:40:09;;;;;;;7.00;4.93;;;8.80;99.90;;;;;;5052913;28;20017;-54
2023/01/03 10:42:55;;;;;;;7.65;5.47;;;9.00;99.90;;;;;;5053535;28;20029;-56
2023/01/03 10:46:02;;;;;;;6.40;4.57;;;8.90;99.90;;;;;;5053460;28;20029;-57
2023/01/03 10:48:51;;;;;;;6.75;4.45;;;9.10;99.90;;;;;;5053275;28;20104;-55
2023/01/03 10:51:46;;;;;;;8.02;5.18;;;9.00;99.90;;;;;;5053671;28;20036;-56
2023/01/03 10:54:35;;;;;;;7.57;4.47;;;8.80;99.90;;;;;;5051663;28;20009;-55
2023/01/03 10:57:45;;;;;;;7.47;4.68;;;8.90;99.90;;;;;;5051267;28;20105;-55
2023/01/03 11:00:36;;;;;;;11.00;4.95;;;8.90;99.90;;;;;;5051685;28;20021;-56
2023/01/03 11:03:24;;;;;;;6.40;4.25;;;8.80;99.90;;;;;;5053385;28;20021;-56
2023/01/03 11:06:14;;;;;;;7.93;5.47;;;8.90;99.90;;;;;;5051319;28;20366;-55
2023/01/03 11:09:04;;;;;;;6.00;4.00;;;8.90;99.90;;;;;;5051432;28;20076;-52
2023/01/03 11:12:01;;;;;;;9.07;4.35;;;9.10;99.90;;;;;;5052588;28;20025;-55
2023/01/03 11:14:54;;;;;;;5.78;3.75;;;9.10;99.90;;;;;;5051345;28;20013;-52
2023/01/03 11:17:58;;;;;;;8.13;3.75;;;9.10;99.90;;;;;;5050847;28;20116;-51
2023/01/03 11:21:04;;;;;;;7.55;4.10;;;9.00;99.90;;;;;;5052125;28;20023;-54
2023/01/03 11:23:53;;;;;;;4.25;3.63;;;9.00;99.90;;;;;;5051850;28;20025;-57
2023/01/03 11:27:01;;;;;;;7.43;3.83;;;9.10;99.90;;;;;;5050549;28;20481;-53
2023/01/03 11:29:47;;;;;;;6.85;3.97;;;9.10;99.90;;;;;;5050604;28;20109;-57
2023/01/03 11:32:57;;;;;;;5.55;3.80;;;9.20;99.90;;;;;;5050649;28;20094;-54
2023/01/03 11:35:53;;;;;;;5.15;3.58;;;9.20;99.90;;;;;;5050776;28;20025;-57
2023/01/03 11:39:00;;;;;;;4.65;3.45;;;9.10;99.90;;;;;;5050982;28;20116;-54
2023/01/03 11:42:16;;;;;;;7.00;3.17;;;9.20;99.90;;;;;;5050698;28;20397;-56
2023/01/03 11:45:20;;;;;;;;;;;9.30;99.90;;;;;;5051067;28;20485;-53
2023/01/03 11:48:32;;;;;;;4.90;3.00;;;9.10;99.90;;;;;;5051244;28;19909;-56
2023/01/03 11:51:55;;;;;;;4.28;3.28;;;9.30;99.90;;;;;;5051250;28;20396;-54
2023/01/03 11:54:58;;;;;;;6.65;3.42;;;9.30;99.90;;;;;;5050565;28;20108;-57
2023/01/03 11:58:11;;;;;;;3.88;2.92;;;9.30;99.90;;;;;;5051270;28;20053;-53
2023/01/03 12:00:59;;;;;;;4.78;2.97;;;9.30;99.90;;;;;;5050118;28;20369;-56
2023/01/03 12:04:25;;;;;;;5.63;2.90;;;9.30;99.90;;;;;;5050294;28;20067;-52
2023/01/03 12:07:28;;;;;;;7.25;3.20;;;9.30;99.90;;;;;;5050585;28;20090;-54
2023/01/03 12:10:30;;;;;;;5.38;3.65;;;9.40;99.90;;;;;;5050785;28;20382;-52
2023/01/03 12:13:44;;;;;;;4.68;3.03;;;9.50;99.90;;;;;;5050840;28;20144;-49
2023/01/03 12:16:44;;;;;;;5.80;2.90;;;9.60;99.90;;;;;;5051240;28;20029;-50
2023/01/03 12:19:56;;;;;;;3.97;2.90;;;9.50;99.90;;;;;;5052335;28;20029;-54
2023/01/03 12:22:49;;;;;;;5.82;3.10;;;9.60;99.90;;;;;;5031534;28;20045;-52
2023/01/03 12:25:38;;;;;;;5.15;3.22;;;9.70;99.90;;;;;;5050087;28;20052;-57
2023/01/03 12:28:51;;;;;;;4.95;2.85;;;9.80;99.90;;;;;;5050029;28;20476;-52
2023/01/03 12:31:48;;;;;;;6.22;3.00;;;9.90;99.90;;;;;;5051015;28;20029;-54
2023/01/03 12:34:53;;;;;;;5.03;3.22;;;9.60;99.90;;;;;;5050950;28;20115;-53
2023/01/03 12:37:41;;;;;;;4.55;3.10;;;9.60;99.90;;;;;;5049352;28;20031;-56
2023/01/03 12:40:42;;;;;;;5.85;3.00;;;9.70;99.90;;;;;;5050226;28;20029;-55
2023/01/03 12:43:45;;;;;;;5.97;3.17;;;10.00;99.90;;;;;;5049880;28;20442;-52
2023/01/03 12:46:36;;;;;;;6.18;3.30;;;10.20;99.90;;;;;;5050584;28;20054;-56
2023/01/03 12:49:36;;;;;;;5.38;4.10;;;10.20;99.90;;;;;;5049564;28;20554;-54
2023/01/03 12:52:24;;;;;;;6.45;3.30;;;10.10;99.90;;;;;;5049979;28;20044;-51
2023/01/03 12:55:29;;;;;;;5.05;3.15;;;10.20;99.90;;;;;;5053309;28;20057;-51
2023/01/03 12:58:36;;;;;;;5.72;3.22;;;10.10;99.90;;;;;;5056217;28;20025;-53
2023/01/03 13:01:27;;;;;;;6.20;3.38;;;10.10;99.90;;;;;;5054758;28;20055;-54
2023/01/03 13:04:27;;;;;;;4.75;3.20;;;10.20;99.90;;;;;;5052357;28;20083;-49
2023/01/03 13:07:25;;;;;;;9.70;3.10;;;10.20;99.90;;;;;;5052401;28;20017;-55
2023/01/03 13:10:18;;;;;;;3.95;2.85;;;10.30;99.90;;;;;;5055509;28;20025;-48
2023/01/03 13:13:04;;;;;;;4.20;2.80;;;10.30;99.90;;;;;;5054495;28;20075;-50
2023/01/03 13:15:52;;;;;;;8.93;2.88;;;10.10;99.90;;;;;;5053536;28;20083;-50
2023/01/03 13:18:38;;;;;;;5.53;3.10;;;10.10;99.90;;;;;;5054979;28;20083;-50
2023/01/03 13:21:51;;;;;;;4.05;2.70;;;10.30;99.90;;;;;;5053605;28;20112;-50
2023/01/03 13:24:46;;;;;;;7.20;3.47;;;10.50;99.90;;;;;;5053595;28;20021;-51
2023/01/03 13:27:46;;;;;;;5.27;3.17;;;10.40;99.90;;;;;;5053655;28;20044;-50
2023/01/03 13:30:35;;;;;;;5.47;3.30;;;10.60;99.90;;;;;;5055349;28;20025;-48
2023/01/03 13:33:20;;;;;;;4.78;3.13;;;10.70;99.90;;;;;;5053320;28;20114;-47
2023/01/03 13:36:08;;;;;;;10.30;3.78;;;10.70;99.90;;;;;;5053393;28;20394;-50
2023/01/03 13:38:54;;;;;;;4.55;3.20;;;10.60;99.90;;;;;;5053444;28;20025;-48
2023/01/03 13:41:40;;;;;;;4.88;3.40;;;10.70;99.90;;;;;;5054172;28;20029;-49
2023/01/03 13:44:26;;;;;;;4.50;3.10;;;10.50;99.90;;;;;;5052876;28;20108;-49
2023/01/03 13:47:35;;;;;;;4.00;3.05;;;10.60;99.90;;;;;;5053231;28;20017;-54
2023/01/03 13:50:26;;;;;;;9.30;4.30;;;10.90;99.90;;;;;;5053334;28;20028;-46
2023/01/03 13:53:12;;;;;;;5.90;3.67;;;11.10;99.90;;;;;;5053401;28;20488;-50
2023/01/03 13:56:13;;;;;;;6.60;3.33;;;11.10;99.90;;;;;;5052953;28;20028;-52
2023/01/03 13:59:17;;;;;;;5.32;3.10;;;11.00;99.90;;;;;;5052911;28;20025;-50
2023/01/03 14:02:08;;;;;;;8.65;4.05;;;11.10;99.90;;;;;;5052893;28;20021;-47
2023/01/03 14:04:54;;;;;;;8.85;3.65;;;11.60;99.90;;;;;;5052567;28;20067;-51
2023/01/03 14:08:05;;;;;;;3.53;2.67;;;12.20;99.50;;;;;;5052423;28;20473;-51
2023/01/03 14:11:06;;;;;;;5.68;2.85;;;12.40;98.30;;;;;;5052751;28;20027;-46
2023/01/03 14:14:03;;;;;;;3.42;2.85;;;12.80;97.50;;;;;;5053860;28;20025;-46
2023/01/03 14:16:52;;;;;;;6.40;3.15;;;12.90;97.10;;;;;;5053583;28;20485;-50
2023/01/03 14:19:41;;;;;;;7.40;3.15;;;13.20;96.80;;;;;;5053075;28;20029;-45
2023/01/03 14:22:39;;;;;;;5.53;3.30;;;13.60;96.40;;;;;;5052935;28;20025;-50
2023/01/03 14:25:34;;;;;;;4.95;3.47;;;14.40;95.00;;;;;;5053809;28;20515;-48
2023/01/03 14:28:23;;;;;;;5.85;2.78;;;14.90;94.80;;;;;;5052051;28;20067;-49
2023/01/03 14:31:17;;;;;;;4.20;3.13;;;14.80;93.60;;;;;;5051927;28;20437;-45
2023/01/03 14:34:04;;;;;;;5.20;3.00;;;14.60;94.10;;;;;;5051870;28;20028;-50
2023/01/03 14:36:50;;;;;;;6.60;4.18;;;14.40;94.10;;;;;;5051880;28;20033;-45
2023/01/03 14:39:36;;;;;;;6.53;4.65;;;14.10;94.30;;;;;;5051700;28;20029;-50
2023/01/03 14:42:23;;;;;;;5.55;2.97;;;13.40;95.20;;;;;;5052194;28;20497;-46
2023/01/03 14:45:16;;;;;;;5.47;3.45;;;12.60;96.70;;;;;;5051879;28;20386;-45
2023/01/03 14:48:04;;;;;;;4.55;3.55;;;12.20;97.20;;;;;;5053543;28;20036;-49
2023/01/03 14:50:52;;;;;;;5.80;3.40;;;11.60;98.50;;;;;;5051906;28;20022;-46
2023/01/03 14:53:40;;;;;;;6.75;4.10;;;11.10;99.70;;;;;;5051951;28;20086;-53
2023/01/03 14:56:27;;;;;;;6.32;3.72;;;10.80;99.90;;;;;;5052711;28;20025;-50
2023/01/03 14:59:18;;;;;;;6.28;3.25;;;10.60;99.90;;;;;;5051559;28;20116;-45
2023/01/03 15:02:04;;;;;;;5.70;3.10;;;10.40;99.90;;;;;;5051810;28;20033;-51
2023/01/03 15:04:53;;;;;;;6.25;3.42;;;10.20;99.90;;;;;;5052899;28;20025;-44
2023/01/03 15:07:42;;;;;;;5.10;3.40;;;10.00;99.90;;;;;;5051347;28;20406;-45
2023/01/03 15:10:28;;;;;;;6.15;3.13;;;10.00;99.90;;;;;;5051794;28;20024;-48
2023/01/03 15:13:23;;;;;;;4.53;3.10;;;9.80;99.90;;;;;;5051372;28;20520;-49
2023/01/03 15:16:44;;;;;;;;;;;9.70;99.90;;;;;;5052876;28;20036;-45
2023/01/03 15:19:32;;;;;;;7.20;4.88;;;9.60;99.90;;;;;;4991458;28;20421;-50
2023/01/03 15:22:21;;;;;;;7.18;4.45;;;9.60;99.90;;;;;;5053418;28;20079;-54
2023/01/03 15:25:17;;;;;;;4.50;3.83;;;9.60;99.90;;;;;;5051485;28;20021;-48
2023/01/03 15:28:24;;;;;;;10.45;3.53;;;9.50;99.90;;;;;;5050516;28;20397;-51
2023/01/03 15:31:33;;;;;;;5.18;3.30;;;9.40;99.90;;;;;;5054493;28;20026;-50
2023/01/03 15:34:27;;;;;;;4.85;3.38;;;9.50;99.90;;;;;;5051009;28;20029;-50
2023/01/03 15:37:21;;;;;;;5.35;3.20;;;9.50;99.90;;;;;;5050509;28;20074;-50
2023/01/03 15:40:10;;;;;;;5.50;3.28;;;9.40;99.90;;;;;;5050888;28;20032;-54
2023/01/03 15:43:20;;;;;;;5.15;3.40;;;9.20;99.90;;;;;;5052686;28;20036;-51
2023/01/03 15:46:15;;;;;;;6.88;3.20;;;9.30;99.90;;;;;;5051433;28;20036;-52
2023/01/03 15:49:03;;;;;;;6.63;3.40;;;9.20;99.90;;;;;;5050848;28;20079;-54
2023/01/03 15:51:49;;;;;;;5.60;3.33;;;9.20;99.90;;;;;;5050682;28;20033;-51
2023/01/03 15:54:35;;;;;;;5.65;3.47;;;9.20;99.90;;;;;;5051161;28;20033;-55
2023/01/03 15:57:24;;;;;;;4.72;3.00;;;9.10;99.90;;;;;;5050541;28;20112;-53
2023/01/03 16:00:19;;;;;;;6.13;3.58;;;9.10;99.90;;;;;;5051717;28;20017;-55
2023/01/03 16:03:10;;;;;;;;;;;9.00;99.90;;;;;;5053067;28;20027;-52
2023/01/03 16:05:57;;;;;;;11.20;5.18;;;9.00;99.90;;;;;;5051901;28;19923;-52
2023/01/03 16:08:43;;;;;;;7.13;3.50;;;8.90;99.90;;;;;;5051053;28;20086;-51
2023/01/03 16:11:29;;;;;;;6.00;3.80;;;8.90;99.90;;;;;;5050128;28;20024;-52